Bellview, Louisiana
Current Conditions -  °F | °C
As of 2:53 AM on Thursday 18 Dec 2014 (Local Time) from KMLU Reporting Station
Overcast Overcast  
Wind Chill: 41°   Ceiling: 4200
Heat Index: 45°   Visibility: 10mi
Dew Point: 41°   Wind: 8mph
Humidity: 86%   Direction: 50°NE
Pressure: 30.21"   Gusts: NA
Location:  32.1631°N, 92.1971°W
Report Text: KMLU 180853Z AUTO 05007KT 10SM OVC042 07/05 A3021 RMK AO2 RAB23E32 SLP230 P0000 60000 T00720050 58001
Loading
Personal Weather Stations






























Interactive Weather Map New forecast layout! Learn more

10-Day Weather Forecast

Advertisements
Track Severe Weather on mobile